Time;durP1;ratioP1;P1;durP2;ratioP2;P2;SDS_P1;SDS_P2;PMS_P1;PMS_P2;Temp;Humidity;BMP_temperature;BMP_pressure;BME280_temperature;BME280_humidity;BME280_pressure;Samples;Min_cycle;Max_cycle;Signal;HPM_P1;HPM_P2
2022/11/29 00:01:43;;;;;;;7.82;7.20;;;3.40;99.90;;;;;;5049956;28;20389;-75
2022/11/29 00:04:11;;;;;;;7.78;7.03;;;3.40;99.90;;;;;;5046691;28;20591;-74
2022/11/29 00:06:39;;;;;;;7.95;7.25;;;3.40;99.90;;;;;;5049239;28;20215;-72
2022/11/29 00:09:10;;;;;;;7.13;6.53;;;3.40;99.90;;;;;;5043259;28;20204;-72
2022/11/29 00:14:27;;;;;;;8.52;7.78;;;3.50;99.90;;;;;;5047239;28;20216;-73
2022/11/29 00:16:57;;;;;;;8.43;7.72;;;3.50;99.90;;;;;;5044266;28;20255;-75
2022/11/29 00:19:25;;;;;;;8.07;7.43;;;3.50;99.90;;;;;;5044091;28;20199;-72
2022/11/29 00:21:52;;;;;;;8.15;7.45;;;3.50;99.90;;;;;;5043660;28;20219;-72
2022/11/29 00:24:20;;;;;;;8.85;7.97;;;3.50;99.90;;;;;;5046736;28;20223;-73
2022/11/29 00:26:47;;;;;;;7.88;7.28;;;3.40;99.90;;;;;;5043574;28;20238;-77
2022/11/29 00:29:14;;;;;;;9.10;8.30;;;3.40;99.90;;;;;;5046914;28;20203;-74
2022/11/29 00:31:44;;;;;;;8.65;7.95;;;3.40;99.90;;;;;;5044988;28;20218;-76
2022/11/29 00:34:12;;;;;;;8.77;8.00;;;3.40;99.90;;;;;;5043035;28;20679;-73
2022/11/29 00:36:40;;;;;;;8.25;7.55;;;3.40;99.90;;;;;;5045322;28;20841;-74
2022/11/29 00:39:10;;;;;;;8.10;7.40;;;3.40;99.90;;;;;;5047418;28;20210;-77
2022/11/29 00:41:37;;;;;;;8.35;7.65;;;3.30;99.90;;;;;;5046234;28;20272;-78
2022/11/29 00:44:05;;;;;;;7.18;6.47;;;3.40;99.90;;;;;;5046900;28;20251;-74
2022/11/29 00:46:32;;;;;;;8.30;7.63;;;3.40;99.90;;;;;;5047506;28;20898;-74
2022/11/29 00:49:01;;;;;;;8.20;7.50;;;3.40;99.90;;;;;;5048653;28;20195;-74
2022/11/29 00:51:28;;;;;;;9.23;8.10;;;3.40;99.90;;;;;;5045789;28;20262;-77
2022/11/29 00:53:56;;;;;;;7.72;7.10;;;3.40;99.90;;;;;;5044118;28;20586;-76
2022/11/29 00:56:23;;;;;;;8.63;7.82;;;3.40;99.90;;;;;;5043341;28;20214;-73
2022/11/29 00:58:50;;;;;;;9.38;8.57;;;3.30;99.90;;;;;;5045996;28;20199;-76
2022/11/29 01:01:18;;;;;;;9.15;8.35;;;3.30;99.90;;;;;;5042501;28;20219;-76
2022/11/29 01:03:45;;;;;;;8.18;7.47;;;3.30;99.90;;;;;;5046682;28;20257;-73
2022/11/29 01:06:15;;;;;;;9.52;8.38;;;3.30;99.90;;;;;;5048500;28;20215;-73
2022/11/29 01:08:44;;;;;;;8.32;7.63;;;3.30;99.90;;;;;;5044984;28;20218;-74
2022/11/29 01:11:15;;;;;;;8.40;7.63;;;3.30;99.90;;;;;;5048296;28;20767;-78
2022/11/29 01:13:43;;;;;;;8.35;7.75;;;3.30;99.90;;;;;;5045122;28;20186;-76
2022/11/29 01:16:11;;;;;;;7.78;7.07;;;3.30;99.90;;;;;;5047393;28;20223;-74
2022/11/29 01:18:39;;;;;;;7.57;6.97;;;3.40;99.90;;;;;;5049376;28;20657;-73
2022/11/29 01:21:10;;;;;;;8.60;7.25;;;3.40;99.90;;;;;;5033047;28;20230;-73
2022/11/29 01:23:40;;;;;;;7.30;6.70;;;3.40;99.90;;;;;;5050564;28;20268;-73
2022/11/29 01:26:09;;;;;;;7.93;7.22;;;3.40;99.90;;;;;;5050533;28;20222;-75
2022/11/29 01:28:37;;;;;;;8.43;7.63;;;3.50;99.90;;;;;;5043990;28;20261;-74
2022/11/29 01:31:07;;;;;;;7.88;7.18;;;3.50;99.90;;;;;;5049757;28;20759;-72
2022/11/29 01:33:35;;;;;;;8.50;7.80;;;3.50;99.90;;;;;;5047478;28;20219;-72
2022/11/29 01:36:03;;;;;;;8.98;8.25;;;3.50;99.90;;;;;;5049369;28;20222;-75
2022/11/29 01:38:31;;;;;;;8.82;8.05;;;3.50;99.90;;;;;;5049439;28;20236;-77
2022/11/29 01:41:04;;;;;;;8.68;7.88;;;3.40;99.90;;;;;;5049314;28;20223;-75
2022/11/29 01:43:32;;;;;;;8.52;7.72;;;3.40;99.90;;;;;;5049065;28;20226;-79
2022/11/29 01:45:59;;;;;;;8.73;7.95;;;3.40;99.90;;;;;;5049325;28;20226;-77
2022/11/29 01:48:30;;;;;;;8.63;7.93;;;3.30;99.90;;;;;;5041349;28;20203;-77
2022/11/29 01:51:01;;;;;;;8.32;7.63;;;3.30;99.90;;;;;;5041509;28;20232;-76
2022/11/29 01:53:29;;;;;;;8.98;8.27;;;3.30;99.90;;;;;;5050388;28;20199;-74
2022/11/29 01:56:04;;;;;;;9.43;8.63;;;3.30;99.90;;;;;;5046454;28;20888;-74
2022/11/29 01:58:32;;;;;;;8.95;8.07;;;3.30;99.90;;;;;;5048984;28;20217;-76
2022/11/29 02:01:01;;;;;;;9.50;8.48;;;3.30;99.90;;;;;;5046702;28;20298;-77
2022/11/29 02:03:28;;;;;;;8.48;7.68;;;3.40;99.90;;;;;;5045433;28;20223;-74
2022/11/29 02:05:56;;;;;;;9.10;8.23;;;3.40;99.90;;;;;;5049407;28;20230;-78
2022/11/29 02:08:30;;;;;;;8.70;8.00;;;3.40;99.90;;;;;;5048317;28;20207;-76
2022/11/29 02:11:22;;;;;;;9.10;8.30;;;3.40;99.90;;;;;;5047654;28;20227;-77
2022/11/29 02:14:06;;;;;;;8.50;7.80;;;3.40;99.90;;;;;;5047841;28;20206;-77
2022/11/29 02:16:43;;;;;;;8.90;8.15;;;3.30;99.90;;;;;;5048615;28;20595;-73
2022/11/29 02:19:27;;;;;;;8.73;7.93;;;3.30;99.90;;;;;;5051202;28;20212;-78
2022/11/29 02:22:02;;;;;;;8.93;8.05;;;3.30;99.90;;;;;;5043709;28;20605;-74
2022/11/29 02:24:57;;;;;;;8.70;8.00;;;3.30;99.90;;;;;;5050765;28;20222;-75
2022/11/29 02:28:07;;;;;;;8.75;7.95;;;3.40;99.90;;;;;;5042334;28;20230;-75
2022/11/29 02:31:20;;;;;;;8.80;8.00;;;3.30;99.90;;;;;;5049736;28;20222;-75
2022/11/29 02:37:16;;;;;;;8.25;7.55;;;3.40;99.90;;;;;;5075868;27;20561;-73
2022/11/29 02:40:02;;;;;;;9.18;8.32;;;3.50;99.90;;;;;;5049230;28;20195;-73
2022/11/29 02:42:59;;;;;;;8.40;7.70;;;3.40;99.90;;;;;;5039497;28;20457;-73
2022/11/29 02:45:50;;;;;;;9.05;8.30;;;3.40;99.90;;;;;;5042299;28;20203;-73
2022/11/29 02:48:32;;;;;;;9.35;8.63;;;3.40;99.90;;;;;;5039468;28;20223;-73
2022/11/29 02:51:07;;;;;;;8.85;8.15;;;3.40;99.90;;;;;;5041312;28;20596;-73
2022/11/29 02:53:42;;;;;;;9.10;8.35;;;3.30;99.90;;;;;;5043180;28;20561;-73
2022/11/29 02:56:16;;;;;;;8.65;7.85;;;3.30;99.90;;;;;;5036976;28;20225;-73
2022/11/29 02:58:50;;;;;;;10.60;9.63;;;3.20;99.90;;;;;;5042412;28;20194;-73
2022/11/29 03:01:24;;;;;;;9.82;9.00;;;3.20;99.90;;;;;;5040147;28;20222;-73
2022/11/29 03:04:02;;;;;;;9.55;8.75;;;3.20;99.90;;;;;;5040094;28;20198;-73
2022/11/29 03:06:38;;;;;;;11.88;10.68;;;3.10;99.90;;;;;;5057772;28;20214;-73
2022/11/29 03:09:14;;;;;;;9.77;8.85;;;3.10;99.90;;;;;;5042576;28;20209;-72
2022/11/29 03:11:47;;;;;;;8.60;7.80;;;3.10;99.90;;;;;;5039556;28;20226;-73
2022/11/29 03:14:19;;;;;;;8.48;7.78;;;3.10;99.90;;;;;;5037996;28;20230;-73
2022/11/29 03:16:59;;;;;;;8.57;7.88;;;3.10;99.90;;;;;;5043146;28;20222;-73
2022/11/29 03:19:42;;;;;;;9.35;8.45;;;3.20;99.90;;;;;;5044737;28;20257;-73
2022/11/29 03:22:15;;;;;;;8.95;8.15;;;3.20;99.90;;;;;;5039713;28;20231;-73
2022/11/29 03:24:50;;;;;;;8.90;8.10;;;3.30;99.90;;;;;;5035348;28;20265;-72
2022/11/29 03:27:26;;;;;;;9.45;8.38;;;3.30;99.90;;;;;;5038583;28;20225;-73
2022/11/29 03:29:58;;;;;;;9.95;9.15;;;3.30;99.90;;;;;;5043871;28;20704;-73
2022/11/29 03:32:33;;;;;;;9.77;8.77;;;3.40;99.90;;;;;;5042530;28;20239;-73
2022/11/29 03:35:07;;;;;;;10.75;9.82;;;3.30;99.90;;;;;;5041181;28;20206;-73
2022/11/29 03:37:43;;;;;;;12.05;10.90;;;3.30;99.90;;;;;;5036430;28;20211;-73
2022/11/29 03:40:21;;;;;;;11.00;10.05;;;3.20;99.90;;;;;;5042508;28;20282;-73
2022/11/29 03:42:53;;;;;;;10.57;9.57;;;3.20;99.90;;;;;;5057133;28;20219;-73
2022/11/29 03:45:27;;;;;;;9.95;9.02;;;3.20;99.90;;;;;;5043586;28;20238;-73
2022/11/29 03:48:00;;;;;;;10.52;9.57;;;3.20;99.90;;;;;;5022855;28;20711;-72
2022/11/29 03:50:35;;;;;;;10.65;9.65;;;3.30;99.90;;;;;;5029252;28;20704;-73
2022/11/29 03:53:11;;;;;;;10.60;9.55;;;3.30;99.90;;;;;;5025303;28;20215;-73
2022/11/29 03:56:01;;;;;;;9.32;8.52;;;3.30;99.90;;;;;;5024443;28;20592;-74
2022/11/29 03:58:49;;;;;;;11.07;10.15;;;3.30;99.90;;;;;;5027570;28;20199;-73
2022/11/29 04:01:53;;;;;;;9.98;9.18;;;3.40;99.90;;;;;;5025068;28;20219;-73
2022/11/29 04:04:53;;;;;;;10.93;9.93;;;3.30;99.90;;;;;;5025805;28;20571;-73
2022/11/29 04:07:38;;;;;;;9.40;8.55;;;3.40;99.90;;;;;;5027388;28;20215;-73
2022/11/29 04:10:26;;;;;;;9.90;9.00;;;3.40;99.90;;;;;;5030918;28;20567;-73
2022/11/29 04:13:29;;;;;;;8.65;7.85;;;3.30;99.90;;;;;;5028231;28;20286;-73
2022/11/29 04:16:16;;;;;;;8.52;7.82;;;3.30;99.90;;;;;;5007644;28;20226;-73
2022/11/29 04:19:22;;;;;;;9.35;8.55;;;3.30;99.90;;;;;;5028904;28;20200;-73
2022/11/29 04:22:18;;;;;;;8.52;7.82;;;3.30;99.90;;;;;;5025488;28;20220;-72
2022/11/29 04:25:15;;;;;;;9.30;8.50;;;3.30;99.90;;;;;;5027967;28;20322;-73
2022/11/29 04:28:02;;;;;;;9.75;8.90;;;3.30;99.90;;;;;;5027035;28;20222;-73
2022/11/29 04:30:41;;;;;;;11.52;10.45;;;3.20;99.90;;;;;;5024699;28;20224;-73
2022/11/29 04:33:42;;;;;;;11.85;10.85;;;3.20;99.90;;;;;;5001912;28;20226;-73
2022/11/29 04:36:51;;;;;;;10.63;9.73;;;3.20;99.90;;;;;;5008558;28;20231;-73
2022/11/29 04:40:04;;;;;;;9.70;8.90;;;3.20;99.90;;;;;;5006899;28;20207;-73
2022/11/29 04:43:19;;;;;;;10.57;9.57;;;3.20;99.90;;;;;;5007806;28;20303;-73
2022/11/29 04:49:06;;;;;;;11.30;10.35;;;3.20;99.90;;;;;;5103694;27;21051;-72
2022/11/29 04:51:53;;;;;;;10.45;9.50;;;3.20;99.90;;;;;;5077754;28;20751;-72
2022/11/29 04:54:30;;;;;;;9.93;9.02;;;3.20;99.90;;;;;;5065883;28;20179;-72
2022/11/29 04:57:05;;;;;;;10.02;9.13;;;3.20;99.90;;;;;;5043702;28;20261;-72
2022/11/29 04:59:41;;;;;;;9.73;8.88;;;3.20;99.90;;;;;;5039545;28;20202;-72
2022/11/29 05:02:20;;;;;;;9.50;8.68;;;3.20;99.90;;;;;;5066346;28;20225;-72
2022/11/29 05:04:56;;;;;;;10.63;9.63;;;3.30;99.90;;;;;;5042406;28;20652;-72
2022/11/29 05:07:33;;;;;;;11.48;10.48;;;3.30;99.90;;;;;;5042546;28;20218;-72
2022/11/29 05:10:16;;;;;;;10.45;9.55;;;3.20;99.90;;;;;;5042459;28;20206;-71
2022/11/29 05:12:53;;;;;;;10.32;9.45;;;3.30;99.90;;;;;;5039957;28;20219;-72
2022/11/29 05:15:50;;;;;;;11.50;10.45;;;3.20;99.90;;;;;;5043798;28;20696;-72
2022/11/29 05:18:26;;;;;;;11.43;10.43;;;3.20;99.90;;;;;;5022450;28;20215;-72
2022/11/29 05:21:06;;;;;;;10.38;9.48;;;3.30;99.90;;;;;;5037325;28;20223;-72
2022/11/29 05:23:46;;;;;;;10.05;9.15;;;3.30;99.90;;;;;;5041174;28;20578;-72
2022/11/29 05:26:19;;;;;;;10.40;9.50;;;3.30;99.90;;;;;;5043828;28;20218;-72
2022/11/29 05:28:56;;;;;;;9.52;8.73;;;3.30;99.90;;;;;;5045317;28;20215;-72
2022/11/29 05:31:37;;;;;;;10.25;9.30;;;3.30;99.90;;;;;;5041434;28;20226;-72
2022/11/29 05:34:27;;;;;;;11.18;10.10;;;3.30;99.90;;;;;;5041895;28;20939;-72
2022/11/29 05:37:03;;;;;;;10.43;9.52;;;3.30;99.90;;;;;;5042241;28;21275;-72
2022/11/29 05:39:38;;;;;;;9.75;8.95;;;3.30;99.90;;;;;;5043387;28;20195;-71
2022/11/29 05:42:45;;;;;;;11.50;10.40;;;3.30;99.90;;;;;;5042069;28;20226;-72
2022/11/29 05:45:18;;;;;;;11.25;10.25;;;3.30;99.90;;;;;;5041575;28;20203;-72
2022/11/29 05:47:52;;;;;;;11.32;10.32;;;3.30;99.90;;;;;;5037924;28;20222;-72
2022/11/29 05:50:26;;;;;;;11.45;10.30;;;3.30;99.90;;;;;;5043813;28;20945;-72
2022/11/29 05:53:05;;;;;;;11.20;10.20;;;3.30;99.90;;;;;;5040970;28;20215;-72
2022/11/29 05:55:44;;;;;;;12.55;11.40;;;3.30;99.90;;;;;;5040099;28;20668;-72
2022/11/29 05:58:20;;;;;;;10.80;9.90;;;3.30;99.90;;;;;;5039186;28;20214;-72
2022/11/29 06:00:54;;;;;;;12.10;11.02;;;3.30;99.90;;;;;;5029099;28;20218;-72
2022/11/29 06:03:30;;;;;;;10.88;9.98;;;3.30;99.90;;;;;;5029705;28;20199;-72
2022/11/29 06:06:00;;;;;;;10.95;9.98;;;3.20;99.90;;;;;;5046065;28;20240;-72
2022/11/29 06:08:37;;;;;;;10.60;9.70;;;3.20;99.90;;;;;;5033014;28;20243;-72
2022/11/29 06:11:11;;;;;;;11.10;10.10;;;3.20;99.90;;;;;;5028130;28;20219;-72
2022/11/29 06:13:50;;;;;;;10.10;9.27;;;3.30;99.90;;;;;;5024538;28;20196;-72
2022/11/29 06:16:46;;;;;;;10.60;9.70;;;3.30;99.90;;;;;;5025646;28;20243;-72
2022/11/29 06:19:53;;;;;;;10.88;9.88;;;3.30;99.90;;;;;;5028943;28;20226;-72
2022/11/29 06:22:35;;;;;;;10.60;9.70;;;3.30;99.90;;;;;;5023801;28;20566;-72
2022/11/29 06:25:19;;;;;;;10.00;9.18;;;3.30;99.90;;;;;;5027418;28;20217;-72
2022/11/29 06:28:05;;;;;;;9.55;8.75;;;3.40;99.90;;;;;;5025243;28;20220;-72
2022/11/29 06:30:48;;;;;;;9.75;8.95;;;3.40;99.90;;;;;;5027666;28;20284;-72
2022/11/29 06:33:22;;;;;;;10.65;9.75;;;3.40;99.90;;;;;;5024034;28;20698;-72
2022/11/29 06:35:57;;;;;;;10.35;9.45;;;3.50;99.90;;;;;;5028055;28;20234;-72
2022/11/29 06:38:28;;;;;;;10.85;9.85;;;3.50;99.90;;;;;;5030402;28;20187;-72
2022/11/29 06:40:59;;;;;;;12.00;11.00;;;3.50;99.90;;;;;;5028354;28;20915;-72
2022/11/29 06:43:27;;;;;;;12.27;11.15;;;3.50;99.90;;;;;;5024789;28;20207;-72
2022/11/29 06:46:00;;;;;;;12.27;11.18;;;3.40;99.90;;;;;;5029157;28;20579;-72
2022/11/29 06:48:30;;;;;;;13.13;11.93;;;3.40;99.90;;;;;;5026922;28;20219;-72
2022/11/29 06:51:07;;;;;;;12.55;11.35;;;3.40;99.90;;;;;;5026716;28;20223;-72
2022/11/29 06:53:44;;;;;;;12.38;11.32;;;3.40;99.90;;;;;;5026353;28;20203;-73
2022/11/29 06:56:24;;;;;;;11.45;10.45;;;3.40;99.90;;;;;;5022388;28;20220;-73
2022/11/29 06:59:01;;;;;;;12.43;11.25;;;3.40;99.90;;;;;;5029728;28;20595;-74
2022/11/29 07:01:36;;;;;;;13.07;11.90;;;3.40;99.90;;;;;;5028479;28;20223;-74
2022/11/29 07:04:33;;;;;;;11.25;10.13;;;3.40;99.90;;;;;;5031099;28;20587;-74
2022/11/29 07:07:01;;;;;;;11.90;10.80;;;3.40;99.90;;;;;;5022697;28;20724;-74
2022/11/29 07:09:33;;;;;;;10.93;9.93;;;3.40;99.90;;;;;;5027470;28;20721;-74
2022/11/29 07:12:04;;;;;;;11.00;10.10;;;3.50;99.90;;;;;;5025024;28;20231;-74
2022/11/29 07:14:32;;;;;;;12.55;11.45;;;3.50;99.90;;;;;;5026466;28;20677;-73
2022/11/29 07:17:06;;;;;;;11.98;10.82;;;3.50;99.90;;;;;;5042314;28;20215;-73
2022/11/29 07:19:43;;;;;;;11.02;10.13;;;3.60;99.90;;;;;;5033648;28;20203;-74
2022/11/29 07:22:26;;;;;;;12.77;11.50;;;3.60;99.90;;;;;;5021666;28;20719;-74
2022/11/29 07:25:01;;;;;;;10.95;9.95;;;3.60;99.90;;;;;;5025567;28;20581;-74
2022/11/29 07:27:39;;;;;;;12.27;11.18;;;3.60;99.90;;;;;;5023138;28;20234;-74
2022/11/29 07:30:12;;;;;;;11.57;10.57;;;3.60;99.90;;;;;;5027796;28;20207;-74
2022/11/29 07:32:52;;;;;;;12.05;10.95;;;3.70;99.90;;;;;;5028249;28;20227;-74
2022/11/29 07:35:29;;;;;;;11.57;10.48;;;3.70;99.90;;;;;;5025736;28;20261;-74
2022/11/29 07:38:06;;;;;;;12.50;11.35;;;3.80;99.90;;;;;;5022749;28;20591;-74
2022/11/29 07:40:38;;;;;;;12.95;11.85;;;3.80;99.90;;;;;;5026663;28;20223;-73
2022/11/29 07:43:25;;;;;;;13.35;12.15;;;3.80;99.90;;;;;;5024220;28;20318;-73
2022/11/29 07:45:54;;;;;;;11.90;10.90;;;3.80;99.90;;;;;;5028456;28;20215;-72
2022/11/29 07:48:21;;;;;;;12.73;11.63;;;3.90;99.90;;;;;;5028011;28;20211;-73
2022/11/29 07:50:49;;;;;;;11.80;10.75;;;3.90;99.90;;;;;;5029358;28;20220;-73
2022/11/29 07:53:18;;;;;;;12.35;11.25;;;3.90;99.90;;;;;;5026565;28;20219;-74
2022/11/29 07:55:46;;;;;;;13.43;12.23;;;3.90;99.90;;;;;;5025179;28;20196;-73
2022/11/29 07:58:16;;;;;;;12.25;11.15;;;3.90;99.90;;;;;;5026063;28;20199;-73
2022/11/29 08:00:44;;;;;;;12.30;10.73;;;3.90;99.90;;;;;;5024610;28;20219;-73
2022/11/29 08:03:12;;;;;;;12.50;11.35;;;3.80;99.90;;;;;;5025474;28;20195;-73
2022/11/29 08:05:41;;;;;;;13.07;11.13;;;3.80;99.90;;;;;;5024184;28;20208;-73
2022/11/29 08:08:09;;;;;;;12.13;11.07;;;3.70;99.90;;;;;;5025022;28;20215;-73
2022/11/29 08:10:36;;;;;;;12.25;11.15;;;3.60;99.90;;;;;;5027017;28;20227;-73
2022/11/29 08:13:03;;;;;;;12.07;10.98;;;3.60;99.90;;;;;;5024163;28;20208;-73
2022/11/29 08:15:32;;;;;;;15.27;11.23;;;3.60;99.90;;;;;;5027463;28;20310;-74
2022/11/29 08:18:00;;;;;;;11.82;10.55;;;3.60;99.90;;;;;;5026825;28;20299;-73
2022/11/29 08:20:27;;;;;;;11.55;10.55;;;3.60;99.90;;;;;;5027799;28;20216;-74
2022/11/29 08:22:56;;;;;;;10.57;9.68;;;3.60;99.90;;;;;;5026534;28;20235;-71
2022/11/29 08:25:23;;;;;;;11.20;10.25;;;3.60;99.90;;;;;;5026398;28;20624;-70
2022/11/29 08:27:53;;;;;;;13.80;12.57;;;3.50;99.90;;;;;;5032899;28;20220;-71
2022/11/29 08:30:22;;;;;;;12.90;11.70;;;3.50;99.90;;;;;;5036730;28;20196;-73
2022/11/29 08:32:52;;;;;;;13.70;12.38;;;3.50;99.90;;;;;;5020776;28;20936;-72
2022/11/29 08:35:22;;;;;;;12.38;11.25;;;3.60;99.90;;;;;;5026366;28;20195;-71
2022/11/29 08:37:49;;;;;;;11.95;10.95;;;3.70;99.90;;;;;;5025080;28;20274;-71
2022/11/29 08:40:17;;;;;;;12.25;11.10;;;3.70;99.90;;;;;;5024647;28;20208;-71
2022/11/29 08:42:45;;;;;;;11.85;10.82;;;3.80;99.90;;;;;;5025135;28;20230;-71
2022/11/29 08:45:12;;;;;;;12.85;11.75;;;3.80;99.90;;;;;;5029202;28;20196;-71
2022/11/29 08:47:41;;;;;;;13.10;11.90;;;3.80;99.90;;;;;;5025081;28;20219;-71
2022/11/29 08:50:13;;;;;;;12.98;11.80;;;3.90;99.90;;;;;;5024488;28;20207;-71
2022/11/29 08:55:29;;;;;;;13.60;12.27;;;3.90;99.90;;;;;;5026510;28;20202;-71
2022/11/29 08:58:02;;;;;;;13.00;11.88;;;4.00;99.90;;;;;;5026227;28;20216;-71
2022/11/29 09:00:29;;;;;;;13.07;11.88;;;4.00;99.90;;;;;;5025616;28;20219;-71
2022/11/29 09:03:58;;;;;;;12.32;11.15;;;4.00;99.90;;;;;;5024855;28;20239;-71
2022/11/29 09:05:45;;;;;;;11.15;10.20;;;4.10;99.90;;;;;;5020262;28;20201;-71
2022/11/29 09:08:13;;;;;;;11.50;10.40;;;4.10;99.90;;;;;;5026825;28;20590;-71
2022/11/29 09:10:41;;;;;;;11.40;10.38;;;4.10;99.90;;;;;;5029928;28;20219;-71
2022/11/29 09:13:10;;;;;;;12.15;11.05;;;4.10;99.90;;;;;;5028667;28;20258;-71
2022/11/29 09:15:38;;;;;;;11.95;10.85;;;4.10;99.90;;;;;;5025522;28;20199;-71
2022/11/29 09:18:05;;;;;;;11.60;10.57;;;4.00;99.90;;;;;;5027857;28;20216;-71
2022/11/29 09:20:33;;;;;;;10.85;9.85;;;4.10;99.90;;;;;;5027012;28;20309;-70
2022/11/29 09:23:02;;;;;;;11.13;10.13;;;4.10;99.90;;;;;;5025215;28;20212;-71
2022/11/29 09:25:30;;;;;;;11.48;10.50;;;4.10;99.90;;;;;;5024404;28;20214;-71
2022/11/29 09:28:00;;;;;;;11.80;10.82;;;4.20;99.90;;;;;;5027431;28;20235;-71
2022/11/29 09:30:30;;;;;;;10.57;9.68;;;4.20;99.90;;;;;;5023706;28;20219;-71
2022/11/29 09:32:58;;;;;;;11.40;10.40;;;4.20;99.90;;;;;;5027357;28;20232;-71
2022/11/29 09:35:25;;;;;;;12.38;11.27;;;4.20;99.90;;;;;;5030322;28;20774;-70
2022/11/29 09:37:52;;;;;;;12.95;11.80;;;4.30;99.90;;;;;;5027310;28;20220;-71
2022/11/29 09:40:27;;;;;;;12.18;11.00;;;4.30;99.90;;;;;;5042201;28;20207;-70
2022/11/29 09:42:59;;;;;;;13.60;11.70;;;4.30;99.90;;;;;;5029427;28;20223;-71
2022/11/29 09:45:32;;;;;;;11.77;10.73;;;4.20;99.90;;;;;;5030456;28;20195;-71
2022/11/29 09:48:28;;;;;;;13.07;11.65;;;4.20;99.90;;;;;;5027503;28;20269;-71
2022/11/29 09:51:03;;;;;;;11.82;10.82;;;4.20;99.90;;;;;;5027731;28;20219;-71
2022/11/29 09:53:45;;;;;;;11.40;10.40;;;4.20;99.90;;;;;;5028178;28;20556;-70
2022/11/29 09:56:21;;;;;;;12.15;11.15;;;4.20;99.90;;;;;;5023875;28;20704;-71
2022/11/29 09:58:53;;;;;;;12.50;11.40;;;4.20;99.90;;;;;;5030319;28;20575;-71
2022/11/29 10:01:25;;;;;;;13.52;12.20;;;4.20;99.90;;;;;;5027282;28;20283;-71
2022/11/29 10:03:55;;;;;;;13.10;11.85;;;4.20;99.90;;;;;;5026693;28;20200;-71
2022/11/29 10:06:26;;;;;;;13.98;12.68;;;4.20;99.90;;;;;;5027947;28;20215;-71
2022/11/29 10:09:00;;;;;;;14.20;12.85;;;4.20;99.90;;;;;;5027261;28;20223;-71
2022/11/29 10:11:35;;;;;;;14.20;12.90;;;4.20;99.90;;;;;;5027451;28;20231;-71
2022/11/29 10:14:11;;;;;;;12.85;11.68;;;4.30;99.90;;;;;;5025208;28;20295;-71
2022/11/29 10:16:44;;;;;;;12.90;11.70;;;4.30;99.90;;;;;;5027004;28;20220;-71
2022/11/29 10:19:20;;;;;;;13.25;12.05;;;4.20;99.90;;;;;;5027030;28;20206;-71
2022/11/29 10:21:56;;;;;;;12.40;11.30;;;4.30;99.90;;;;;;5029082;28;20226;-71
2022/11/29 10:24:25;;;;;;;12.60;11.40;;;4.30;99.90;;;;;;5030355;28;20222;-71
2022/11/29 10:26:54;;;;;;;12.52;11.52;;;4.30;99.90;;;;;;5029038;28;20274;-71
2022/11/29 10:29:23;;;;;;;11.52;10.38;;;4.30;99.90;;;;;;5026519;28;20223;-71
2022/11/29 10:31:53;;;;;;;12.23;11.15;;;4.30;99.90;;;;;;5026655;28;20223;-71
2022/11/29 10:34:22;;;;;;;11.05;10.07;;;4.30;99.90;;;;;;5031523;28;20203;-71
2022/11/29 10:36:52;;;;;;;10.88;9.88;;;4.40;99.90;;;;;;5025340;28;20226;-71
2022/11/29 10:39:24;;;;;;;9.85;9.05;;;4.50;99.90;;;;;;5029329;28;20553;-71
2022/11/29 10:41:57;;;;;;;11.98;10.88;;;4.50;99.90;;;;;;5026845;28;20230;-70
2022/11/29 10:44:25;;;;;;;12.75;11.65;;;4.60;99.90;;;;;;5028646;28;20196;-71
2022/11/29 10:46:53;;;;;;;12.05;11.05;;;4.60;99.90;;;;;;5028266;28;20220;-71
2022/11/29 10:49:23;;;;;;;12.45;11.35;;;4.60;99.90;;;;;;5025024;28;20228;-71
2022/11/29 10:51:50;;;;;;;11.45;10.40;;;4.60;99.90;;;;;;5040924;28;20211;-70
2022/11/29 10:54:34;;;;;;;10.93;10.02;;;4.70;99.90;;;;;;5037780;28;20562;-71
2022/11/29 10:57:14;;;;;;;10.65;9.65;;;4.60;99.90;;;;;;5028735;28;20212;-71
2022/11/29 10:59:41;;;;;;;10.63;9.75;;;4.60;99.90;;;;;;5024717;28;20250;-71
2022/11/29 11:02:18;;;;;;;11.07;10.18;;;4.70;99.90;;;;;;5028039;28;20219;-71
2022/11/29 11:04:48;;;;;;;12.23;11.00;;;4.70;99.90;;;;;;5024075;28;20191;-71
2022/11/29 11:07:24;;;;;;;12.05;10.95;;;4.70;99.90;;;;;;5027752;28;20222;-71
2022/11/29 11:09:56;;;;;;;11.82;10.80;;;4.70;99.90;;;;;;5025497;28;20310;-71
2022/11/29 11:12:28;;;;;;;12.55;11.45;;;4.70;99.90;;;;;;5024651;28;20225;-71
2022/11/29 11:15:16;;;;;;;12.70;11.50;;;4.80;99.90;;;;;;5029482;28;20192;-71
2022/11/29 11:17:56;;;;;;;14.50;13.15;;;4.70;99.90;;;;;;5022126;28;20251;-71
2022/11/29 11:20:25;;;;;;;13.82;12.57;;;4.60;99.90;;;;;;5027682;28;21650;-71
2022/11/29 11:23:01;;;;;;;13.93;12.48;;;4.50;99.90;;;;;;5026008;28;20228;-71
2022/11/29 11:25:30;;;;;;;12.07;10.98;;;4.50;99.90;;;;;;5024972;28;20201;-70
2022/11/29 11:28:14;;;;;;;11.30;10.30;;;4.50;99.90;;;;;;5024451;28;20226;-71
2022/11/29 11:30:50;;;;;;;11.05;10.15;;;4.60;99.90;;;;;;5027132;28;20211;-71
2022/11/29 11:33:20;;;;;;;12.10;11.00;;;4.60;99.90;;;;;;5025918;28;20199;-71
2022/11/29 11:36:02;;;;;;;12.82;11.63;;;4.60;99.90;;;;;;5021814;28;20222;-71
2022/11/29 11:38:30;;;;;;;11.93;10.85;;;4.60;99.90;;;;;;5029908;28;20202;-71
2022/11/29 11:41:17;;;;;;;12.05;10.95;;;4.60;99.90;;;;;;5021996;28;20219;-71
2022/11/29 11:43:53;;;;;;;11.73;10.63;;;4.60;99.90;;;;;;5025342;28;20261;-71
2022/11/29 11:46:20;;;;;;;12.02;10.93;;;4.60;99.90;;;;;;5022576;28;20219;-71
2022/11/29 11:48:48;;;;;;;12.73;11.68;;;4.50;99.90;;;;;;5023516;28;20798;-70
2022/11/29 11:51:23;;;;;;;12.30;11.13;;;4.50;99.90;;;;;;5026776;28;20242;-70
2022/11/29 11:53:53;;;;;;;11.68;10.65;;;4.50;99.90;;;;;;5026418;28;20726;-70
2022/11/29 11:56:22;;;;;;;10.95;9.95;;;4.50;99.90;;;;;;5025372;28;20219;-71
2022/11/29 11:58:54;;;;;;;11.88;10.88;;;4.50;99.90;;;;;;5026799;28;20199;-72
2022/11/29 12:01:29;;;;;;;12.00;11.00;;;4.50;99.90;;;;;;5023327;28;20219;-72
2022/11/29 12:04:04;;;;;;;10.60;9.70;;;4.60;99.90;;;;;;5037308;28;20202;-71
2022/11/29 12:06:44;;;;;;;10.45;9.60;;;4.60;99.90;;;;;;5028872;28;20226;-72
2022/11/29 12:09:23;;;;;;;10.18;9.38;;;4.60;99.90;;;;;;5025058;28;20223;-72
2022/11/29 12:12:00;;;;;;;9.65;8.85;;;4.60;99.90;;;;;;5026193;28;20227;-72
2022/11/29 12:14:37;;;;;;;10.57;9.68;;;4.70;99.90;;;;;;5026306;28;20202;-72
2022/11/29 12:17:11;;;;;;;10.63;9.73;;;4.70;99.90;;;;;;5026782;28;20215;-71
2022/11/29 12:19:46;;;;;;;10.43;9.52;;;4.70;99.90;;;;;;5022998;28;20745;-72
2022/11/29 12:22:19;;;;;;;10.77;9.88;;;4.80;99.90;;;;;;5026027;28;20242;-72
2022/11/29 12:24:55;;;;;;;10.07;9.10;;;4.80;99.90;;;;;;5024697;28;20192;-72
2022/11/29 12:27:23;;;;;;;10.57;9.68;;;4.80;99.90;;;;;;5022300;28;20215;-72
2022/11/29 12:29:52;;;;;;;11.13;10.23;;;4.90;99.90;;;;;;5020028;28;20227;-72
2022/11/29 12:32:39;;;;;;;9.77;8.95;;;4.80;99.90;;;;;;5023471;28;20230;-72
2022/11/29 12:35:45;;;;;;;11.00;10.10;;;4.80;99.90;;;;;;5024186;28;20214;-72
2022/11/29 12:38:27;;;;;;;10.93;10.00;;;4.80;99.90;;;;;;5009190;28;20223;-72
2022/11/29 12:41:05;;;;;;;10.02;9.23;;;4.80;99.90;;;;;;5025815;28;20223;-73
2022/11/29 12:43:46;;;;;;;9.70;8.90;;;4.80;99.90;;;;;;5024268;28;20207;-72
2022/11/29 12:46:22;;;;;;;8.68;7.97;;;4.80;99.90;;;;;;5007937;28;20219;-72
2022/11/29 12:48:57;;;;;;;9.73;8.93;;;4.80;99.90;;;;;;5026195;28;20816;-72
2022/11/29 12:51:32;;;;;;;9.55;8.75;;;4.80;99.90;;;;;;5024883;28;20225;-72
2022/11/29 12:54:15;;;;;;;10.05;9.25;;;4.80;99.90;;;;;;5023398;28;20224;-72
2022/11/29 12:56:49;;;;;;;10.73;9.85;;;4.80;99.90;;;;;;5023337;28;20298;-73
2022/11/29 12:59:26;;;;;;;10.75;9.85;;;4.80;99.90;;;;;;5020817;28;20190;-72
2022/11/29 13:02:12;;;;;;;11.10;10.20;;;4.90;99.90;;;;;;5024780;28;20234;-72
2022/11/29 13:04:45;;;;;;;10.85;9.93;;;4.90;99.90;;;;;;5025216;28;20198;-72
2022/11/29 13:07:21;;;;;;;10.93;10.00;;;4.90;99.90;;;;;;5024797;28;20219;-73
2022/11/29 13:10:16;;;;;;;10.02;9.20;;;4.90;99.90;;;;;;5028526;28;20219;-72
2022/11/29 13:12:47;;;;;;;10.60;9.40;;;4.90;99.90;;;;;;5026184;28;20216;-72
2022/11/29 13:15:17;;;;;;;9.57;8.77;;;4.90;99.90;;;;;;5034960;28;20183;-71
2022/11/29 13:17:53;;;;;;;9.38;8.68;;;4.90;99.90;;;;;;5054672;28;20235;-72
2022/11/29 13:20:33;;;;;;;9.85;9.05;;;5.00;99.90;;;;;;5030325;28;20200;-72
2022/11/29 13:23:14;;;;;;;9.63;8.82;;;4.90;99.90;;;;;;5025348;28;20215;-72
2022/11/29 13:25:43;;;;;;;9.02;8.25;;;4.90;99.90;;;;;;5032538;28;20253;-72
2022/11/29 13:28:21;;;;;;;8.70;8.00;;;4.90;99.90;;;;;;5028762;28;20195;-72
2022/11/29 13:30:48;;;;;;;9.45;8.65;;;4.90;99.90;;;;;;5028665;28;20223;-72
2022/11/29 13:33:23;;;;;;;9.20;8.40;;;4.90;99.90;;;;;;5026970;28;20581;-72
2022/11/29 13:35:57;;;;;;;9.75;8.95;;;5.00;99.90;;;;;;5030315;28;20261;-72
2022/11/29 13:38:30;;;;;;;9.65;8.85;;;5.00;99.90;;;;;;5029275;28;20220;-72
2022/11/29 13:41:05;;;;;;;9.32;8.52;;;5.00;99.90;;;;;;5029504;28;20648;-72